createdAt,value
2022-09-26T00:01:20.080Z,1.20
2022-09-26T00:03:51.378Z,1.30
2022-09-26T00:06:20.142Z,0.90
2022-09-26T00:08:49.458Z,1.40
2022-09-26T00:11:19.772Z,0.97
2022-09-26T00:13:47.904Z,1.30
2022-09-26T00:16:16.299Z,1.27
2022-09-26T00:18:44.118Z,1.17
2022-09-26T00:21:15.422Z,1.10
2022-09-26T00:23:43.128Z,1.47
2022-09-26T00:26:12.088Z,1.20
2022-09-26T00:28:40.002Z,1.57
2022-09-26T00:31:09.635Z,1.33
2022-09-26T00:33:37.685Z,1.10
2022-09-26T00:36:06.774Z,1.13
2022-09-26T00:38:36.601Z,1.13
2022-09-26T00:41:05.144Z,1.70
2022-09-26T00:43:34.725Z,1.97
2022-09-26T00:46:07.350Z,1.80
2022-09-26T00:48:37.970Z,1.83
2022-09-26T00:51:05.990Z,2.00
2022-09-26T00:53:38.266Z,1.40
2022-09-26T00:56:12.243Z,1.57
2022-09-26T00:58:45.967Z,1.67
2022-09-26T01:01:15.912Z,1.43
2022-09-26T01:03:45.621Z,1.30
2022-09-26T01:06:15.334Z,1.90
2022-09-26T01:08:48.845Z,1.50
2022-09-26T01:11:17.335Z,1.40
2022-09-26T01:13:46.186Z,1.50
2022-09-26T01:16:14.085Z,1.40
2022-09-26T01:18:42.208Z,1.30
2022-09-26T01:21:31.595Z,1.40
2022-09-26T01:24:28.518Z,0.93
2022-09-26T01:27:17.949Z,1.10
2022-09-26T01:30:07.671Z,1.37
2022-09-26T01:33:19.190Z,1.20
2022-09-26T01:36:01.955Z,1.40
2022-09-26T01:38:44.601Z,1.03
2022-09-26T01:41:27.732Z,1.30
2022-09-26T01:44:03.074Z,0.97
2022-09-26T01:46:40.345Z,1.37
2022-09-26T01:49:13.873Z,1.10
2022-09-26T01:51:48.720Z,1.10
2022-09-26T01:54:20.785Z,1.00
2022-09-26T01:56:51.981Z,1.20
2022-09-26T01:59:25.887Z,1.20
2022-09-26T02:02:02.789Z,0.97
2022-09-26T02:04:36.946Z,1.50
2022-09-26T02:07:13.255Z,1.50
2022-09-26T02:09:44.313Z,1.30
2022-09-26T02:12:16.961Z,0.93
2022-09-26T02:14:48.361Z,1.10
2022-09-26T02:17:22.913Z,1.17
2022-09-26T02:19:56.763Z,1.40
2022-09-26T02:22:25.173Z,0.90
2022-09-26T02:24:53.992Z,0.90
2022-09-26T02:27:22.332Z,1.13
2022-09-26T02:29:50.032Z,1.00
2022-09-26T02:32:23.550Z,0.90
2022-09-26T02:34:51.512Z,1.20
2022-09-26T02:37:22.175Z,1.00
2022-09-26T02:39:53.084Z,1.27
2022-09-26T02:42:30.033Z,1.10
2022-09-26T02:45:26.045Z,0.93
2022-09-26T02:48:21.707Z,1.23
2022-09-26T02:51:00.834Z,1.53
2022-09-26T02:53:52.347Z,1.30
2022-09-26T02:56:31.951Z,1.20
2022-09-26T02:59:07.735Z,1.30
2022-09-26T03:01:42.860Z,1.20
2022-09-26T03:04:19.556Z,1.80
2022-09-26T03:06:54.379Z,1.10
2022-09-26T03:09:25.180Z,1.30
2022-09-26T03:11:54.638Z,1.30
2022-09-26T03:14:22.443Z,1.30
2022-09-26T03:16:52.170Z,1.47
2022-09-26T03:19:29.752Z,0.93
2022-09-26T03:21:58.760Z,0.97
2022-09-26T03:24:26.869Z,0.90
2022-09-26T03:26:57.299Z,1.17
2022-09-26T03:29:26.815Z,1.00
2022-09-26T03:31:54.732Z,0.90
2022-09-26T03:34:23.810Z,0.90
2022-09-26T03:36:51.886Z,0.90
2022-09-26T03:39:20.115Z,0.90
2022-09-26T03:41:51.657Z,1.07
2022-09-26T03:44:38.788Z,1.00
2022-09-26T03:47:25.030Z,1.20
2022-09-26T03:49:56.186Z,1.10
2022-09-26T03:52:24.915Z,1.13
2022-09-26T03:54:53.248Z,1.00
2022-09-26T03:57:21.528Z,1.00
2022-09-26T04:00:08.075Z,0.90
2022-09-26T04:02:44.689Z,1.10
2022-09-26T04:05:26.941Z,1.20
2022-09-26T04:07:55.651Z,1.50
2022-09-26T04:10:24.231Z,1.30
2022-09-26T04:12:51.962Z,0.83
2022-09-26T04:15:19.607Z,1.53
2022-09-26T04:17:47.420Z,1.10
2022-09-26T04:20:15.375Z,1.23
2022-09-26T04:22:46.317Z,1.10
2022-09-26T04:25:14.018Z,1.20
2022-09-26T04:27:41.678Z,1.20
2022-09-26T04:30:11.778Z,1.13
2022-09-26T04:32:48.086Z,1.10
2022-09-26T04:35:36.128Z,1.03
2022-09-26T04:38:05.708Z,1.13
2022-09-26T04:40:34.192Z,1.10
2022-09-26T04:43:09.098Z,1.07
2022-09-26T04:45:36.783Z,1.40
2022-09-26T04:48:04.659Z,1.00
2022-09-26T04:50:52.415Z,1.00
2022-09-26T04:53:21.579Z,1.13
2022-09-26T04:56:14.294Z,1.10
2022-09-26T04:58:43.302Z,1.30
2022-09-26T05:01:13.421Z,1.00
2022-09-26T05:03:57.613Z,0.87
2022-09-26T05:06:27.391Z,1.10
2022-09-26T05:08:57.699Z,1.00
2022-09-26T05:11:40.465Z,1.07
2022-09-26T05:14:10.860Z,1.10
2022-09-26T05:16:40.123Z,0.97
2022-09-26T05:19:10.092Z,0.80
2022-09-26T05:21:44.174Z,1.20
2022-09-26T05:24:30.753Z,1.40
2022-09-26T05:27:00.922Z,1.20
2022-09-26T05:29:28.713Z,1.50
2022-09-26T05:32:04.274Z,1.13
2022-09-26T05:34:36.360Z,1.57
2022-09-26T05:37:04.964Z,1.47
2022-09-26T05:39:52.192Z,1.47
2022-09-26T05:42:20.909Z,1.20
2022-09-26T05:44:49.249Z,1.70
2022-09-26T05:47:18.029Z,1.43
2022-09-26T05:49:45.772Z,1.40
2022-09-26T05:52:16.123Z,1.50
2022-09-26T05:54:45.080Z,1.40
2022-09-26T05:57:32.721Z,1.70
2022-09-26T06:00:00.374Z,1.60
2022-09-26T06:02:28.059Z,1.53
2022-09-26T06:05:18.681Z,1.70
2022-09-26T06:08:07.223Z,1.33
2022-09-26T06:11:05.680Z,1.27
2022-09-26T06:13:34.557Z,1.23
2022-09-26T06:16:05.622Z,1.13
2022-09-26T06:18:34.098Z,1.30
2022-09-26T06:21:03.647Z,1.30
2022-09-26T06:23:31.728Z,1.30
2022-09-26T06:26:00.003Z,1.03
2022-09-26T06:28:29.153Z,1.10
2022-09-26T06:30:57.549Z,1.20
2022-09-26T06:33:49.820Z,1.07
2022-09-26T06:36:25.167Z,1.20
2022-09-26T06:38:54.935Z,1.10
2022-09-26T06:41:26.001Z,1.17
2022-09-26T06:43:55.209Z,1.10
2022-09-26T06:46:42.012Z,1.20
2022-09-26T06:49:13.443Z,0.80
2022-09-26T06:51:49.870Z,0.90
2022-09-26T06:54:18.746Z,0.90
2022-09-26T06:56:46.483Z,1.00
2022-09-26T06:59:16.920Z,1.00
2022-09-26T07:01:52.046Z,0.90
2022-09-26T07:04:52.360Z,1.20
2022-09-26T07:07:30.090Z,1.30
2022-09-26T07:09:58.077Z,1.00
2022-09-26T07:12:44.132Z,0.90
2022-09-26T07:15:15.751Z,0.90
2022-09-26T07:17:45.348Z,0.90
2022-09-26T07:20:21.875Z,1.37
2022-09-26T07:23:11.878Z,1.10
2022-09-26T07:25:41.622Z,1.00
2022-09-26T07:28:11.096Z,0.90
2022-09-26T07:30:46.374Z,1.10
2022-09-26T07:33:25.651Z,1.30
2022-09-26T07:35:55.085Z,1.20
2022-09-26T07:38:23.481Z,0.67
2022-09-26T07:40:54.440Z,0.93
2022-09-26T07:43:42.496Z,0.90
2022-09-26T07:46:30.115Z,1.13
2022-09-26T07:49:16.008Z,1.03
2022-09-26T07:52:10.238Z,1.20
2022-09-26T07:55:01.074Z,1.30
2022-09-26T07:58:07.222Z,1.20
2022-09-26T08:00:48.523Z,1.50
2022-09-26T08:03:38.846Z,1.40
2022-09-26T08:06:20.270Z,1.20
2022-09-26T08:08:49.772Z,1.30
2022-09-26T08:11:36.132Z,1.40
2022-09-26T08:14:22.445Z,1.70
2022-09-26T08:17:17.249Z,1.80
2022-09-26T08:19:46.571Z,1.70
2022-09-26T08:22:14.626Z,1.80
2022-09-26T08:24:50.295Z,2.00
2022-09-26T08:27:36.013Z,2.00
2022-09-26T08:30:04.656Z,1.60
2022-09-26T08:32:33.714Z,1.90
2022-09-26T08:35:02.957Z,2.00
2022-09-26T08:37:50.602Z,1.70
2022-09-26T08:40:50.837Z,1.60
2022-09-26T08:43:49.532Z,1.80
2022-09-26T08:46:43.079Z,1.83
2022-09-26T08:49:40.554Z,2.00
2022-09-26T08:52:27.844Z,1.70
2022-09-26T08:54:58.924Z,1.60
2022-09-26T08:57:35.029Z,1.47
2022-09-26T09:00:11.837Z,2.10
2022-09-26T09:02:46.303Z,2.03
2022-09-26T09:05:21.041Z,1.57
2022-09-26T09:07:54.624Z,1.67
2022-09-26T09:10:33.531Z,1.67
2022-09-26T09:13:39.797Z,1.93
2022-09-26T09:16:44.767Z,1.60
2022-09-26T09:19:35.570Z,1.53
2022-09-26T09:22:35.065Z,2.03
2022-09-26T09:25:18.333Z,1.80
2022-09-26T09:28:02.614Z,1.67
2022-09-26T09:30:42.225Z,1.80
2022-09-26T09:33:34.966Z,1.50
2022-09-26T09:36:38.798Z,1.47
2022-09-26T09:39:30.483Z,1.40
2022-09-26T09:42:24.373Z,1.53
2022-09-26T09:44:56.689Z,1.00
2022-09-26T09:47:29.006Z,1.13
2022-09-26T09:49:59.724Z,0.83
2022-09-26T09:52:43.556Z,1.20
2022-09-26T09:55:22.118Z,0.93
2022-09-26T09:58:07.196Z,1.33
2022-09-26T10:00:42.415Z,1.23
2022-09-26T10:03:26.026Z,1.30
2022-09-26T10:05:59.696Z,1.17
2022-09-26T10:08:36.668Z,1.30
2022-09-26T10:11:24.033Z,1.57
2022-09-26T10:14:03.247Z,1.20
2022-09-26T10:17:20.378Z,1.30
2022-09-26T10:20:37.547Z,1.50
2022-09-26T10:23:20.969Z,1.50
2022-09-26T10:25:50.661Z,1.50
2022-09-26T10:28:45.140Z,1.67
2022-09-26T10:31:24.414Z,1.70
2022-09-26T10:34:24.689Z,1.50
2022-09-26T10:36:53.213Z,1.30
2022-09-26T10:39:40.845Z,1.50
2022-09-26T10:42:16.002Z,1.50
2022-09-26T10:44:43.900Z,1.40
2022-09-26T10:47:25.771Z,1.50
2022-09-26T10:50:16.565Z,1.33
2022-09-26T10:53:08.916Z,1.40
2022-09-26T10:55:44.600Z,1.60
2022-09-26T10:58:18.706Z,1.60
2022-09-26T11:00:50.468Z,1.27
2022-09-26T11:03:25.902Z,1.33
2022-09-26T11:06:24.286Z,1.50
2022-09-26T11:09:00.485Z,1.40
2022-09-26T11:11:40.027Z,1.07
2022-09-26T11:14:10.206Z,1.53
2022-09-26T11:16:51.188Z,1.30
2022-09-26T11:19:29.116Z,1.47
2022-09-26T11:22:08.025Z,1.23
2022-09-26T11:24:45.930Z,1.43
2022-09-26T11:27:23.751Z,1.20
2022-09-26T11:29:57.469Z,1.40
2022-09-26T11:32:31.127Z,1.20
2022-09-26T11:35:29.645Z,1.10
2022-09-26T11:38:26.329Z,1.10
2022-09-26T11:41:08.033Z,1.10
2022-09-26T11:43:48.280Z,1.10
2022-09-26T11:46:48.002Z,1.30
2022-09-26T11:49:54.935Z,1.27
2022-09-26T11:53:00.064Z,1.20
2022-09-26T11:55:32.652Z,1.30
2022-09-26T11:58:06.468Z,1.20
2022-09-26T12:00:45.025Z,1.13
2022-09-26T12:03:46.784Z,1.20
2022-09-26T12:06:25.829Z,1.20
2022-09-26T12:09:18.951Z,1.20
2022-09-26T12:12:00.146Z,1.00
2022-09-26T12:14:41.736Z,1.03
2022-09-26T12:17:21.025Z,0.90
2022-09-26T12:19:58.417Z,1.00
2022-09-26T12:22:36.069Z,1.10
2022-09-26T12:25:30.968Z,1.00
2022-09-26T12:28:12.357Z,0.97
2022-09-26T12:30:45.752Z,1.10
2022-09-26T12:33:34.585Z,1.20
2022-09-26T12:36:18.888Z,1.00
2022-09-26T12:38:58.219Z,0.97
2022-09-26T12:41:48.066Z,1.43
2022-09-26T12:44:28.471Z,1.07
2022-09-26T12:47:21.422Z,1.30
2022-09-26T12:50:04.550Z,1.20
2022-09-26T12:52:56.280Z,1.10
2022-09-26T12:55:33.159Z,1.00
2022-09-26T12:58:13.743Z,1.10
2022-09-26T13:00:53.886Z,1.00
2022-09-26T13:03:50.635Z,1.07
2022-09-26T13:06:57.017Z,1.00
2022-09-26T13:09:46.204Z,1.40
2022-09-26T13:12:37.110Z,0.87
2022-09-26T13:15:19.755Z,0.90
2022-09-26T13:17:52.351Z,1.17
2022-09-26T13:20:27.303Z,1.20
2022-09-26T13:23:00.196Z,1.03
2022-09-26T13:25:35.717Z,1.00
2022-09-26T13:28:09.979Z,1.00
2022-09-26T13:30:42.745Z,1.23
2022-09-26T13:33:18.420Z,1.20
2022-09-26T13:35:47.383Z,1.20
2022-09-26T13:38:23.148Z,0.90
2022-09-26T13:40:58.738Z,0.90
2022-09-26T13:43:47.447Z,0.97
2022-09-26T13:46:26.970Z,1.30
2022-09-26T13:49:02.029Z,1.00
2022-09-26T13:51:40.289Z,1.50
2022-09-26T13:54:19.034Z,1.10
2022-09-26T13:56:49.543Z,0.90
2022-09-26T13:59:32.409Z,0.70
2022-09-26T14:02:19.052Z,0.70
2022-09-26T14:04:48.023Z,1.20
2022-09-26T14:07:31.747Z,0.87
2022-09-26T14:10:13.649Z,1.20
2022-09-26T14:13:05.904Z,0.80
2022-09-26T14:15:57.984Z,1.00
2022-09-26T14:18:39.162Z,1.20
2022-09-26T14:21:22.718Z,0.90
2022-09-26T14:23:52.502Z,1.10
2022-09-26T14:26:22.075Z,1.20
2022-09-26T14:28:55.505Z,1.20
2022-09-26T14:31:57.895Z,0.83
2022-09-26T14:34:31.117Z,0.77
2022-09-26T14:37:03.594Z,1.60
2022-09-26T14:39:41.140Z,1.13
2022-09-26T14:42:11.857Z,1.30
2022-09-26T14:44:49.746Z,1.30
2022-09-26T14:47:17.587Z,1.10
2022-09-26T14:49:59.865Z,1.20
2022-09-26T14:52:28.031Z,1.00
2022-09-26T14:55:01.266Z,0.90
2022-09-26T14:57:32.247Z,0.70
2022-09-26T15:00:02.160Z,0.80
2022-09-26T15:02:39.274Z,0.80
2022-09-26T15:05:19.950Z,1.10
2022-09-26T15:07:49.993Z,0.90
2022-09-26T15:10:26.983Z,0.80
2022-09-26T15:13:03.926Z,0.90
2022-09-26T15:15:52.221Z,0.70
2022-09-26T15:18:32.438Z,0.80
2022-09-26T15:21:06.890Z,0.93
2022-09-26T15:23:45.621Z,0.60
2022-09-26T15:26:17.808Z,0.77
2022-09-26T15:28:49.228Z,0.80
2022-09-26T15:31:25.639Z,0.77
2022-09-26T15:33:59.669Z,1.00
2022-09-26T15:36:34.413Z,0.80
2022-09-26T15:39:07.255Z,0.70
2022-09-26T15:41:52.645Z,0.70
2022-09-26T15:44:25.593Z,1.07
2022-09-26T15:46:53.389Z,1.03
2022-09-26T15:49:22.530Z,1.00
2022-09-26T15:51:54.567Z,0.77
2022-09-26T15:54:27.964Z,0.70
2022-09-26T15:56:59.537Z,0.70
2022-09-26T15:59:31.634Z,0.80
2022-09-26T16:02:01.207Z,1.00
2022-09-26T16:04:30.489Z,0.80
2022-09-26T16:07:05.029Z,0.77
2022-09-26T16:09:34.570Z,0.70
2022-09-26T16:12:09.344Z,0.70
2022-09-26T16:14:43.697Z,0.70
2022-09-26T16:17:20.254Z,1.07
2022-09-26T16:19:51.420Z,0.90
2022-09-26T16:22:44.958Z,0.80
2022-09-26T16:25:52.954Z,0.90
2022-09-26T16:28:41.897Z,0.70
2022-09-26T16:31:17.828Z,0.87
2022-09-26T16:33:52.306Z,1.00
2022-09-26T16:36:21.955Z,1.00
2022-09-26T16:38:56.400Z,0.90
2022-09-26T16:41:56.305Z,1.10
2022-09-26T16:44:28.877Z,1.20
2022-09-26T16:47:01.589Z,1.10
2022-09-26T16:49:40.269Z,1.10
2022-09-26T16:52:21.108Z,1.43
2022-09-26T16:54:50.315Z,1.00
2022-09-26T16:57:22.419Z,0.80
2022-09-26T16:59:51.687Z,1.00
2022-09-26T17:02:19.054Z,0.97
2022-09-26T17:04:48.365Z,0.90
2022-09-26T17:07:16.714Z,0.87
2022-09-26T17:09:44.526Z,0.60
2022-09-26T17:12:20.234Z,0.83
2022-09-26T17:14:51.890Z,0.80
2022-09-26T17:17:23.918Z,0.80
2022-09-26T17:19:59.059Z,0.80
2022-09-26T17:22:28.375Z,1.33
2022-09-26T17:24:56.608Z,1.10
2022-09-26T17:27:28.468Z,0.90
2022-09-26T17:30:00.308Z,0.90
2022-09-26T17:32:30.560Z,1.07
2022-09-26T17:34:59.898Z,0.60
2022-09-26T17:37:28.299Z,0.60
2022-09-26T17:39:56.351Z,0.80
2022-09-26T17:42:26.201Z,1.13
2022-09-26T17:44:54.052Z,0.90
2022-09-26T17:47:22.742Z,0.77
2022-09-26T17:49:56.306Z,1.07
2022-09-26T17:52:28.903Z,1.00
2022-09-26T17:54:59.859Z,0.80
2022-09-26T17:57:38.216Z,0.87
2022-09-26T18:00:11.144Z,0.87
2022-09-26T18:02:42.713Z,1.07
2022-09-26T18:05:18.893Z,1.03
2022-09-26T18:07:49.179Z,1.20
2022-09-26T18:10:20.495Z,0.70
2022-09-26T18:12:51.255Z,0.87
2022-09-26T18:15:22.121Z,0.90
2022-09-26T18:17:50.826Z,0.87
2022-09-26T18:20:19.691Z,0.80
2022-09-26T18:22:50.974Z,0.60
2022-09-26T18:25:21.867Z,0.80
2022-09-26T18:27:54.136Z,0.80
2022-09-26T18:30:25.465Z,0.90
2022-09-26T18:32:56.447Z,0.70
2022-09-26T18:35:27.055Z,0.80
2022-09-26T18:37:56.457Z,0.80
2022-09-26T18:40:27.074Z,0.80
2022-09-26T18:42:58.803Z,0.90
2022-09-26T18:45:29.398Z,0.93
2022-09-26T18:47:57.755Z,0.87
2022-09-26T18:50:30.287Z,0.80
2022-09-26T18:52:58.262Z,0.80
2022-09-26T18:55:45.055Z,0.90
2022-09-26T18:58:27.752Z,1.10
2022-09-26T19:00:57.890Z,0.90
2022-09-26T19:03:29.313Z,1.17
2022-09-26T19:06:04.352Z,0.77
2022-09-26T19:08:35.507Z,0.80
2022-09-26T19:11:13.218Z,1.00
2022-09-26T19:13:43.546Z,1.00
2022-09-26T19:16:12.399Z,1.00
2022-09-26T19:18:41.661Z,1.20
2022-09-26T19:21:17.427Z,1.30
2022-09-26T19:23:47.006Z,1.00
2022-09-26T19:26:26.866Z,1.10
2022-09-26T19:28:57.662Z,0.90
2022-09-26T19:31:26.127Z,1.10
2022-09-26T19:33:54.855Z,1.07
2022-09-26T19:36:23.067Z,1.17
2022-09-26T19:38:51.054Z,1.20
2022-09-26T19:41:18.810Z,1.13
2022-09-26T19:43:46.788Z,1.07
2022-09-26T19:46:22.498Z,1.40
2022-09-26T19:48:50.835Z,1.20
2022-09-26T19:51:18.742Z,1.37
2022-09-26T19:53:46.557Z,1.10
2022-09-26T19:56:14.488Z,1.30
2022-09-26T19:58:42.848Z,1.00
2022-09-26T20:01:19.167Z,1.20
2022-09-26T20:03:47.304Z,1.23
2022-09-26T20:06:18.192Z,1.13
2022-09-26T20:08:46.124Z,1.00
2022-09-26T20:11:13.981Z,1.47
2022-09-26T20:14:04.942Z,1.00
2022-09-26T20:16:35.748Z,1.30
2022-09-26T20:19:05.019Z,1.30
2022-09-26T20:21:34.425Z,1.13
2022-09-26T20:24:02.924Z,1.03
2022-09-26T20:26:32.733Z,1.40
2022-09-26T20:29:00.464Z,1.07
2022-09-26T20:31:29.735Z,1.30
2022-09-26T20:34:00.088Z,1.27
2022-09-26T20:36:32.040Z,1.20
2022-09-26T20:39:03.290Z,1.17
2022-09-26T20:41:33.535Z,1.53
2022-09-26T20:44:04.909Z,1.20
2022-09-26T20:46:35.537Z,1.30
2022-09-26T20:49:08.309Z,1.20
2022-09-26T20:51:36.418Z,1.20
2022-09-26T20:54:06.610Z,1.13
2022-09-26T20:56:34.428Z,1.17
2022-09-26T20:59:02.212Z,1.10
2022-09-26T21:01:30.135Z,0.97
2022-09-26T21:03:58.695Z,1.00
2022-09-26T21:06:32.853Z,1.00
2022-09-26T21:09:02.634Z,0.97
2022-09-26T21:11:30.496Z,1.10
2022-09-26T21:13:58.380Z,1.10
2022-09-26T21:16:26.663Z,0.90
2022-09-26T21:18:54.490Z,1.27
2022-09-26T21:21:24.592Z,1.20
2022-09-26T21:24:24.748Z,1.17
2022-09-26T21:26:52.868Z,1.10
2022-09-26T21:29:20.624Z,1.20
2022-09-26T21:31:51.941Z,1.10
2022-09-26T21:34:22.739Z,1.00
2022-09-26T21:36:52.430Z,1.20
2022-09-26T21:39:21.846Z,1.03
2022-09-26T21:41:51.924Z,1.07
2022-09-26T21:44:25.404Z,1.10
2022-09-26T21:46:53.102Z,1.07
2022-09-26T21:49:20.809Z,1.30
2022-09-26T21:51:53.096Z,1.00
2022-09-26T21:54:26.684Z,1.00
2022-09-26T21:56:58.577Z,1.20
2022-09-26T21:59:26.394Z,1.27
2022-09-26T22:01:54.183Z,1.13
2022-09-26T22:04:22.491Z,1.00
2022-09-26T22:06:50.274Z,1.27
2022-09-26T22:09:18.054Z,1.30
2022-09-26T22:11:47.135Z,1.30
2022-09-26T22:14:14.823Z,0.93
2022-09-26T22:16:42.601Z,1.10
2022-09-26T22:19:10.417Z,1.10
2022-09-26T22:21:38.362Z,1.00
2022-09-26T22:24:06.261Z,1.00
2022-09-26T22:26:33.978Z,1.30
2022-09-26T22:29:03.114Z,1.00
2022-09-26T22:31:30.863Z,1.10
2022-09-26T22:33:59.461Z,1.20
2022-09-26T22:36:27.462Z,1.37
2022-09-26T22:38:55.413Z,0.93
2022-09-26T22:41:23.154Z,1.00
2022-09-26T22:43:50.845Z,1.10
2022-09-26T22:46:20.120Z,1.17
2022-09-26T22:48:48.928Z,1.13
2022-09-26T22:51:17.866Z,1.00
2022-09-26T22:53:46.110Z,1.00
2022-09-26T22:56:15.449Z,1.00
2022-09-26T22:58:44.721Z,1.00
2022-09-26T23:01:14.949Z,1.20
2022-09-26T23:03:44.321Z,0.83
2022-09-26T23:06:12.772Z,0.90
2022-09-26T23:08:40.642Z,0.80
2022-09-26T23:11:09.410Z,0.87
2022-09-26T23:13:37.150Z,1.07
2022-09-26T23:16:06.391Z,1.20
2022-09-26T23:18:34.785Z,1.23
2022-09-26T23:21:08.280Z,0.90
2022-09-26T23:23:36.235Z,1.00
2022-09-26T23:26:05.492Z,1.03
2022-09-26T23:28:33.707Z,0.90
2022-09-26T23:31:08.982Z,0.90
2022-09-26T23:33:37.002Z,0.80
2022-09-26T23:36:05.412Z,1.13
2022-09-26T23:38:35.146Z,1.10
2022-09-26T23:41:03.122Z,1.00
2022-09-26T23:43:30.905Z,1.00
2022-09-26T23:45:58.684Z,0.80
2022-09-26T23:48:26.432Z,1.00
2022-09-26T23:50:54.368Z,1.20
2022-09-26T23:53:22.420Z,0.97
2022-09-26T23:55:51.759Z,1.07
2022-09-26T23:58:19.842Z,0.90
